createdAt,value
2018-11-01T00:00:26.562Z,9.98
2018-11-01T00:01:26.577Z,9.84
2018-11-01T00:02:26.830Z,9.84
2018-11-01T00:03:26.836Z,9.82
2018-11-01T00:04:26.570Z,9.87
2018-11-01T00:05:26.891Z,9.87
2018-11-01T00:06:26.579Z,9.92
2018-11-01T00:07:26.572Z,9.87
2018-11-01T00:08:26.591Z,9.91
2018-11-01T00:09:26.834Z,9.86
2018-11-01T00:10:26.832Z,9.83
2018-11-01T00:11:26.583Z,9.8
2018-11-01T00:12:26.852Z,9.79
2018-11-01T00:13:26.326Z,9.84
2018-11-01T00:14:26.857Z,9.86
2018-11-01T00:15:26.851Z,9.76
2018-11-01T00:16:26.590Z,9.83
2018-11-01T00:17:26.865Z,9.83
2018-11-01T00:18:26.854Z,9.82
2018-11-01T00:19:26.856Z,9.82
2018-11-01T00:20:26.649Z,9.82
2018-11-01T00:21:26.862Z,9.87
2018-11-01T00:22:26.864Z,9.89
2018-11-01T00:23:26.635Z,9.86
2018-11-01T00:24:26.602Z,9.8
2018-11-01T00:25:26.604Z,9.86
2018-11-01T00:26:26.868Z,9.83
2018-11-01T00:27:26.615Z,9.83
2018-11-01T00:28:26.614Z,9.89
2018-11-01T00:29:26.872Z,9.83
2018-11-01T00:30:26.920Z,9.86
2018-11-01T00:31:26.878Z,9.86
2018-11-01T00:32:26.628Z,9.77
2018-11-01T00:33:26.617Z,9.87
2018-11-01T00:34:26.871Z,9.8
2018-11-01T00:35:26.863Z,9.77
2018-11-01T00:36:26.618Z,9.89
2018-11-01T00:37:26.894Z,9.92
2018-11-01T00:38:26.881Z,9.91
2018-11-01T00:39:26.623Z,9.97
2018-11-01T00:40:26.937Z,9.98
2018-11-01T00:41:26.618Z,9.99
2018-11-01T00:42:26.630Z,9.98
2018-11-01T00:43:26.643Z,10.05
2018-11-01T00:44:26.632Z,9.99
2018-11-01T00:45:26.634Z,9.99
2018-11-01T00:46:26.898Z,10.04
2018-11-01T00:47:26.901Z,10.05
2018-11-01T00:48:26.917Z,9.99
2018-11-01T00:49:26.398Z,10.13
2018-11-01T00:50:26.383Z,10.04
2018-11-01T00:51:26.903Z,10.04
2018-11-01T00:52:26.906Z,10.01
2018-11-01T00:53:26.646Z,10.07
2018-11-01T00:54:26.651Z,10.12
2018-11-01T00:55:26.701Z,10.12
2018-11-01T00:56:26.658Z,10.09
2018-11-01T00:57:26.659Z,10.07
2018-11-01T00:58:26.920Z,10.09
2018-11-01T00:59:26.657Z,10.09
2018-11-01T01:00:26.664Z,10.12
2018-11-01T01:01:26.931Z,10.05
2018-11-01T01:02:26.667Z,10.09
2018-11-01T01:03:26.931Z,10.12
2018-11-01T01:04:26.664Z,10.09
2018-11-01T01:05:26.934Z,10.12
2018-11-01T01:06:26.691Z,10.05
2018-11-01T01:07:26.932Z,10.1
2018-11-01T01:08:26.935Z,10.13
2018-11-01T01:09:26.934Z,10.17
2018-11-01T01:10:26.726Z,10.2
2018-11-01T01:11:26.937Z,10.04
2018-11-01T01:12:26.688Z,10.13
2018-11-01T01:13:26.943Z,10.17
2018-11-01T01:14:26.940Z,10.19
2018-11-01T01:15:26.742Z,10.16
2018-11-01T01:16:26.952Z,10.17
2018-11-01T01:17:26.686Z,10.15
2018-11-01T01:18:26.432Z,10.19
2018-11-01T01:19:26.696Z,10.19
2018-11-01T01:20:26.532Z,10.19
2018-11-01T01:21:26.976Z,10.19
2018-11-01T01:22:26.694Z,10.28
2018-11-01T01:23:26.955Z,10.17
2018-11-01T01:24:26.700Z,10.22
2018-11-01T01:25:26.722Z,10.16
2018-11-01T01:26:26.700Z,10.22
2018-11-01T01:27:26.730Z,10.19
2018-11-01T01:28:26.971Z,10.3
2018-11-01T01:29:26.715Z,10.28
2018-11-01T01:30:27.023Z,10.17
2018-11-01T01:31:26.448Z,10.19
2018-11-01T01:32:26.713Z,10.23
2018-11-01T01:33:26.980Z,10.12
2018-11-01T01:34:26.897Z,10.22
2018-11-01T01:35:26.731Z,10.2
2018-11-01T01:36:26.983Z,10.19
2018-11-01T01:37:26.986Z,10.12
2018-11-01T01:38:26.991Z,10.16
2018-11-01T01:39:26.728Z,10.2
2018-11-01T01:40:26.729Z,10.15
2018-11-01T01:41:26.728Z,10.17
2018-11-01T01:42:26.732Z,10.17
2018-11-01T01:43:26.737Z,10.15
2018-11-01T01:44:26.737Z,10.16
2018-11-01T01:45:27.048Z,10.1
2018-11-01T01:46:27.001Z,10.22
2018-11-01T01:47:27.002Z,10.07
2018-11-01T01:48:26.478Z,10.19
2018-11-01T01:49:26.742Z,10.2
2018-11-01T01:50:27.276Z,10.12
2018-11-01T01:51:26.821Z,10.02
2018-11-01T01:52:27.007Z,10.02
2018-11-01T01:53:27.008Z,10.09
2018-11-01T01:54:26.744Z,10.13
2018-11-01T01:55:27.018Z,10.02
2018-11-01T01:56:26.491Z,10.04
2018-11-01T01:57:26.494Z,10.07
2018-11-01T01:58:27.021Z,10.04
2018-11-01T01:59:26.766Z,10.02
2018-11-01T02:00:27.071Z,10.16
2018-11-01T02:01:26.758Z,10.09
2018-11-01T02:02:26.766Z,10.15
2018-11-01T02:03:26.780Z,10.01
2018-11-01T02:04:26.772Z,10.05
2018-11-01T02:05:28.181Z,10.07
2018-11-01T02:06:26.775Z,10.07
2018-11-01T02:07:26.771Z,10.05
2018-11-01T02:08:26.778Z,10.01
2018-11-01T02:09:26.774Z,10.07
2018-11-01T02:10:27.096Z,10.09
2018-11-01T02:11:27.043Z,10.1
2018-11-01T02:12:27.090Z,10.12
2018-11-01T02:13:27.050Z,10.16
2018-11-01T02:14:27.050Z,10.1
2018-11-01T02:15:27.062Z,10.15
2018-11-01T02:16:27.047Z,10.09
2018-11-01T02:17:26.799Z,10.19
2018-11-01T02:18:27.067Z,10.17
2018-11-01T02:19:27.110Z,10.16
2018-11-01T02:20:26.849Z,10.2
2018-11-01T02:21:26.893Z,10.16
2018-11-01T02:22:27.071Z,10.16
2018-11-01T02:23:27.091Z,10.19
2018-11-01T02:24:27.061Z,10.17
2018-11-01T02:25:27.060Z,10.25
2018-11-01T02:26:26.808Z,10.23
2018-11-01T02:27:26.801Z,10.16
2018-11-01T02:28:26.803Z,10.17
2018-11-01T02:29:26.807Z,10.19
2018-11-01T02:30:26.553Z,10.22
2018-11-01T02:31:26.974Z,10.25
2018-11-01T02:32:26.819Z,10.26
2018-11-01T02:33:27.077Z,10.3
2018-11-01T02:34:27.092Z,10.3
2018-11-01T02:35:27.174Z,10.26
2018-11-01T02:36:26.822Z,10.26
2018-11-01T02:37:26.823Z,10.28
2018-11-01T02:38:26.988Z,10.28
2018-11-01T02:39:26.826Z,10.28
2018-11-01T02:40:27.109Z,10.3
2018-11-01T02:41:26.837Z,10.26
2018-11-01T02:42:26.829Z,10.31
2018-11-01T02:43:27.100Z,10.28
2018-11-01T02:44:27.097Z,10.3
2018-11-01T02:45:27.101Z,10.25
2018-11-01T02:46:27.110Z,10.33
2018-11-01T02:47:26.840Z,10.28
2018-11-01T02:48:27.109Z,10.33
2018-11-01T02:49:26.848Z,10.28
2018-11-01T02:50:27.201Z,10.28
2018-11-01T02:51:26.850Z,10.28
2018-11-01T02:52:26.850Z,10.3
2018-11-01T02:53:27.110Z,10.25
2018-11-01T02:54:27.116Z,10.33
2018-11-01T02:55:27.132Z,10.22
2018-11-01T02:56:26.861Z,10.25
2018-11-01T02:57:27.125Z,10.2
2018-11-01T02:58:27.144Z,10.15
2018-11-01T02:59:26.626Z,10.15
2018-11-01T03:00:26.877Z,10.2
2018-11-01T03:01:27.142Z,10.15
2018-11-01T03:02:26.874Z,10.07
2018-11-01T03:03:26.874Z,10.12
2018-11-01T03:04:26.882Z,10.16
2018-11-01T03:05:26.941Z,10.22
2018-11-01T03:06:27.137Z,10.15
2018-11-01T03:07:27.176Z,10.16
2018-11-01T03:08:26.893Z,10.15
2018-11-01T03:09:26.885Z,10.16
2018-11-01T03:10:26.884Z,10.19
2018-11-01T03:11:26.903Z,10.22
2018-11-01T03:12:27.161Z,10.17
2018-11-01T03:13:26.883Z,10.17
2018-11-01T03:14:26.898Z,10.19
2018-11-01T03:15:27.156Z,10.22
2018-11-01T03:16:27.156Z,10.25
2018-11-01T03:17:26.891Z,10.33
2018-11-01T03:18:27.179Z,10.19
2018-11-01T03:19:26.633Z,10.2
2018-11-01T03:20:27.208Z,10.2
2018-11-01T03:21:27.237Z,10.23
2018-11-01T03:22:27.267Z,10.25
2018-11-01T03:23:27.178Z,10.23
2018-11-01T03:24:26.904Z,10.15
2018-11-01T03:25:27.181Z,10.23
2018-11-01T03:26:27.005Z,10.22
2018-11-01T03:27:26.651Z,10.26
2018-11-01T03:28:27.170Z,10.3
2018-11-01T03:29:26.914Z,10.17
2018-11-01T03:30:27.211Z,10.2
2018-11-01T03:31:27.191Z,10.3
2018-11-01T03:32:27.204Z,10.17
2018-11-01T03:33:26.928Z,10.15
2018-11-01T03:34:27.196Z,10.16
2018-11-01T03:35:26.980Z,10.17
2018-11-01T03:36:26.928Z,10.15
2018-11-01T03:37:26.929Z,10.22
2018-11-01T03:38:27.822Z,10.22
2018-11-01T03:39:27.191Z,10.17
2018-11-01T03:40:27.237Z,10.12
2018-11-01T03:41:26.933Z,10.09
2018-11-01T03:42:26.942Z,10.22
2018-11-01T03:43:27.196Z,10.19
2018-11-01T03:44:27.208Z,10.19
2018-11-01T03:45:27.098Z,10.09
2018-11-01T03:46:27.206Z,10.05
2018-11-01T03:47:26.950Z,10.01
2018-11-01T03:48:27.215Z,10.12
2018-11-01T03:49:26.692Z,10.04
2018-11-01T03:50:27.291Z,10.01
2018-11-01T03:51:26.960Z,10.04
2018-11-01T03:52:26.954Z,10.05
2018-11-01T03:53:27.499Z,10.12
2018-11-01T03:54:27.020Z,10.12
2018-11-01T03:55:27.225Z,10.05
2018-11-01T03:56:26.961Z,10.04
2018-11-01T03:57:27.217Z,10.05
2018-11-01T03:58:26.975Z,10.05
2018-11-01T03:59:26.965Z,9.99
2018-11-01T04:00:27.291Z,10.04
2018-11-01T04:01:27.230Z,10.04
2018-11-01T04:02:26.977Z,10.04
2018-11-01T04:03:26.979Z,10.1
2018-11-01T04:04:26.975Z,9.99
2018-11-01T04:05:27.247Z,9.95
2018-11-01T04:06:27.235Z,10.09
2018-11-01T04:07:27.260Z,10.01
2018-11-01T04:08:27.237Z,10.02
2018-11-01T04:09:27.235Z,10.01
2018-11-01T04:10:26.978Z,9.98
2018-11-01T04:11:27.250Z,10.02
2018-11-01T04:12:26.975Z,9.99
2018-11-01T04:13:27.406Z,10.02
2018-11-01T04:14:27.246Z,10.01
2018-11-01T04:15:27.448Z,10.04
2018-11-01T04:16:27.253Z,10.04
2018-11-01T04:17:27.252Z,9.98
2018-11-01T04:18:27.250Z,10.04
2018-11-01T04:19:26.730Z,9.99
2018-11-01T04:20:26.734Z,9.99
2018-11-01T04:21:27.259Z,10.04
2018-11-01T04:22:27.255Z,10.04
2018-11-01T04:23:27.704Z,10.05
2018-11-01T04:24:27.262Z,10.02
2018-11-01T04:25:27.243Z,9.98
2018-11-01T04:26:27.007Z,10.07
2018-11-01T04:27:26.983Z,10.05
2018-11-01T04:28:27.013Z,9.99
2018-11-01T04:29:27.238Z,10.02
2018-11-01T04:30:26.808Z,10.01
2018-11-01T04:31:27.261Z,10.05
2018-11-01T04:32:26.983Z,10.01
2018-11-01T04:33:27.662Z,10.02
2018-11-01T04:34:27.231Z,9.98
2018-11-01T04:35:27.331Z,10.04
2018-11-01T04:36:27.317Z,9.98
2018-11-01T04:37:26.972Z,9.91
2018-11-01T04:38:26.970Z,9.91
2018-11-01T04:39:26.738Z,9.92
2018-11-01T04:40:27.357Z,9.86
2018-11-01T04:41:26.985Z,9.82
2018-11-01T04:42:26.974Z,9.84
2018-11-01T04:43:27.242Z,9.87
2018-11-01T04:44:27.066Z,9.86
2018-11-01T04:45:27.280Z,9.84
2018-11-01T04:46:27.311Z,9.86
2018-11-01T04:47:27.153Z,9.86
2018-11-01T04:48:27.245Z,9.84
2018-11-01T04:49:27.264Z,9.89
2018-11-01T04:50:26.983Z,9.84
2018-11-01T04:51:27.232Z,9.83
2018-11-01T04:52:27.240Z,9.84
2018-11-01T04:53:26.737Z,9.73
2018-11-01T04:54:26.993Z,9.8
2018-11-01T04:55:27.292Z,9.83
2018-11-01T04:56:27.250Z,9.73
2018-11-01T04:57:27.252Z,9.68
2018-11-01T04:58:26.997Z,9.73
2018-11-01T04:59:27.004Z,9.72
2018-11-01T05:00:27.255Z,9.66
2018-11-01T05:01:26.756Z,9.74
2018-11-01T05:02:27.015Z,9.72
2018-11-01T05:03:26.775Z,9.69
2018-11-01T05:04:27.262Z,9.66
2018-11-01T05:05:27.326Z,9.74
2018-11-01T05:06:26.761Z,9.69
2018-11-01T05:07:27.268Z,9.72
2018-11-01T05:08:27.014Z,9.68
2018-11-01T05:09:27.282Z,9.68
2018-11-01T05:10:27.275Z,9.66
2018-11-01T05:11:27.027Z,9.62
2018-11-01T05:12:27.287Z,9.58
2018-11-01T05:13:27.283Z,9.61
2018-11-01T05:14:27.025Z,9.51
2018-11-01T05:15:27.269Z,9.54
2018-11-01T05:16:27.280Z,9.48
2018-11-01T05:17:27.293Z,9.48
2018-11-01T05:18:27.282Z,9.48
2018-11-01T05:19:27.299Z,9.46
2018-11-01T05:20:27.575Z,9.44
2018-11-01T05:21:27.290Z,9.44
2018-11-01T05:22:27.291Z,9.44
2018-11-01T05:23:27.288Z,9.44
2018-11-01T05:24:26.805Z,9.39
2018-11-01T05:25:27.348Z,9.36
2018-11-01T05:26:27.048Z,9.37
2018-11-01T05:27:27.303Z,9.29
2018-11-01T05:28:27.293Z,9.26
2018-11-01T05:29:27.435Z,9.28
2018-11-01T05:30:27.297Z,9.21
2018-11-01T05:31:27.045Z,9.21
2018-11-01T05:32:27.048Z,9.29
2018-11-01T05:33:27.047Z,9.23
2018-11-01T05:34:27.360Z,9.26
2018-11-01T05:35:28.357Z,9.19
2018-11-01T05:36:27.308Z,9.18
2018-11-01T05:37:27.317Z,9.21
2018-11-01T05:38:27.058Z,9.22
2018-11-01T05:39:26.802Z,9.18
2018-11-01T05:40:27.317Z,9.19
2018-11-01T05:41:27.313Z,9.23
2018-11-01T05:42:27.337Z,9.22
2018-11-01T05:43:27.064Z,9.23
2018-11-01T05:44:27.063Z,9.26
2018-11-01T05:45:27.314Z,9.28
2018-11-01T05:46:27.319Z,9.32
2018-11-01T05:47:27.321Z,9.36
2018-11-01T05:48:27.316Z,9.39
2018-11-01T05:49:27.315Z,9.36
2018-11-01T05:50:27.116Z,9.46
2018-11-01T05:51:27.073Z,9.31
2018-11-01T05:52:27.327Z,9.29
2018-11-01T05:53:27.324Z,9.37
2018-11-01T05:54:26.816Z,9.36
2018-11-01T05:55:26.819Z,9.37
2018-11-01T05:56:27.073Z,9.47
2018-11-01T05:57:27.337Z,9.47
2018-11-01T05:58:27.075Z,9.43
2018-11-01T05:59:27.332Z,9.44
2018-11-01T06:00:27.081Z,9.36
2018-11-01T06:01:27.334Z,9.5
2018-11-01T06:02:27.333Z,9.5
2018-11-01T06:03:27.339Z,9.5
2018-11-01T06:04:27.079Z,9.47
2018-11-01T06:05:27.244Z,9.47
2018-11-01T06:06:26.828Z,9.44
2018-11-01T06:07:27.091Z,9.43
2018-11-01T06:08:27.087Z,9.44
2018-11-01T06:09:27.089Z,9.46
2018-11-01T06:10:27.443Z,9.43
2018-11-01T06:11:27.344Z,9.51
2018-11-01T06:12:27.691Z,9.43
2018-11-01T06:13:27.355Z,9.54
2018-11-01T06:14:27.344Z,9.5
2018-11-01T06:15:27.364Z,9.48
2018-11-01T06:16:27.345Z,9.51
2018-11-01T06:17:27.098Z,9.54
2018-11-01T06:18:27.098Z,9.54
2018-11-01T06:19:27.104Z,9.59
2018-11-01T06:20:27.675Z,9.48
2018-11-01T06:21:27.362Z,9.64
2018-11-01T06:22:27.353Z,9.68
2018-11-01T06:23:27.355Z,9.61
2018-11-01T06:24:27.356Z,9.69
2018-11-01T06:25:27.115Z,9.65
2018-11-01T06:26:27.355Z,9.69
2018-11-01T06:27:27.363Z,9.73
2018-11-01T06:28:27.367Z,9.76
2018-11-01T06:29:27.109Z,9.69
2018-11-01T06:30:27.652Z,9.73
2018-11-01T06:31:27.363Z,9.72
2018-11-01T06:32:27.115Z,9.74
2018-11-01T06:33:27.374Z,9.82
2018-11-01T06:34:27.116Z,9.87
2018-11-01T06:35:27.477Z,9.83
2018-11-01T06:36:27.120Z,9.86
2018-11-01T06:37:27.119Z,9.83
2018-11-01T06:38:27.128Z,9.82
2018-11-01T06:39:26.871Z,9.87
2018-11-01T06:40:27.382Z,9.87
2018-11-01T06:41:27.379Z,9.89
2018-11-01T06:42:27.380Z,9.92
2018-11-01T06:43:27.384Z,9.97
2018-11-01T06:44:27.638Z,9.97
2018-11-01T06:45:27.379Z,9.99
2018-11-01T06:46:27.373Z,9.98
2018-11-01T06:47:27.126Z,10.02
2018-11-01T06:48:27.387Z,10.01
2018-11-01T06:49:27.393Z,9.99
2018-11-01T06:50:27.429Z,10.04
2018-11-01T06:51:27.129Z,9.95
2018-11-01T06:52:27.686Z,10.1
2018-11-01T06:53:27.388Z,10.02
2018-11-01T06:54:27.389Z,10.07
2018-11-01T06:55:27.414Z,10.15
2018-11-01T06:56:27.150Z,10.16
2018-11-01T06:57:27.403Z,10.16
2018-11-01T06:58:27.905Z,10.16
2018-11-01T06:59:27.805Z,10.19
2018-11-01T07:00:27.157Z,10.17
2018-11-01T07:01:27.419Z,10.19
2018-11-01T07:02:27.417Z,10.17
2018-11-01T07:03:27.426Z,10.15
2018-11-01T07:04:27.165Z,10.15
2018-11-01T07:05:27.263Z,10.22
2018-11-01T07:06:27.170Z,10.33
2018-11-01T07:07:27.170Z,10.34
2018-11-01T07:08:27.436Z,10.3
2018-11-01T07:09:27.425Z,10.33
2018-11-01T07:10:27.428Z,10.37
2018-11-01T07:11:27.564Z,10.37
2018-11-01T07:12:27.431Z,10.34
2018-11-01T07:13:27.436Z,10.41
2018-11-01T07:14:27.184Z,10.37
2018-11-01T07:15:27.184Z,10.42
2018-11-01T07:16:27.434Z,10.42
2018-11-01T07:17:28.209Z,10.49
2018-11-01T07:18:27.440Z,10.46
2018-11-01T07:19:27.464Z,10.49
2018-11-01T07:20:27.497Z,10.44
2018-11-01T07:21:27.452Z,10.56
2018-11-01T07:22:26.941Z,10.53
2018-11-01T07:23:27.459Z,10.51
2018-11-01T07:24:27.199Z,10.53
2018-11-01T07:25:27.807Z,10.61
2018-11-01T07:26:27.733Z,10.63
2018-11-01T07:27:27.206Z,10.61
2018-11-01T07:28:27.483Z,10.72
2018-11-01T07:29:27.209Z,10.71
2018-11-01T07:30:27.475Z,10.75
2018-11-01T07:31:27.216Z,10.74
2018-11-01T07:32:27.529Z,10.86
2018-11-01T07:33:27.477Z,10.9
2018-11-01T07:34:27.458Z,10.92
2018-11-01T07:35:27.545Z,10.87
2018-11-01T07:36:27.223Z,10.89
2018-11-01T07:37:27.482Z,10.92
2018-11-01T07:38:27.502Z,10.99
2018-11-01T07:39:27.230Z,10.99
2018-11-01T07:40:27.245Z,11.08
2018-11-01T07:41:27.232Z,11.12
2018-11-01T07:42:27.485Z,11.07
2018-11-01T07:43:27.486Z,11.05
2018-11-01T07:44:27.237Z,11.14
2018-11-01T07:45:27.493Z,11.14
2018-11-01T07:46:27.254Z,11.14
2018-11-01T07:47:27.508Z,11.22
2018-11-01T07:48:27.619Z,11.26
2018-11-01T07:49:27.250Z,11.18
2018-11-01T07:50:27.306Z,11.19
2018-11-01T07:51:27.513Z,11.23
2018-11-01T07:52:27.007Z,11.27
2018-11-01T07:53:27.519Z,11.32
2018-11-01T07:54:27.271Z,11.29
2018-11-01T07:55:27.265Z,11.25
2018-11-01T07:56:27.521Z,11.32
2018-11-01T07:57:27.531Z,11.35
2018-11-01T07:58:27.887Z,11.32
2018-11-01T07:59:27.525Z,11.26
2018-11-01T08:00:27.537Z,11.23
2018-11-01T08:01:27.535Z,11.33
2018-11-01T08:02:27.036Z,11.36
2018-11-01T08:03:27.557Z,11.36
2018-11-01T08:04:27.295Z,11.26
2018-11-01T08:05:27.629Z,11.19
2018-11-01T08:06:27.291Z,11.26
2018-11-01T08:07:27.296Z,11.27
2018-11-01T08:08:27.302Z,11.26
2018-11-01T08:09:27.556Z,11.23
2018-11-01T08:10:27.599Z,11.35
2018-11-01T08:11:27.563Z,11.43
2018-11-01T08:12:27.560Z,11.57
2018-11-01T08:13:27.562Z,11.57
2018-11-01T08:14:27.309Z,11.57
2018-11-01T08:15:27.111Z,11.62
2018-11-01T08:16:27.620Z,11.69
2018-11-01T08:17:27.320Z,11.72
2018-11-01T08:18:27.575Z,11.81
2018-11-01T08:19:27.764Z,11.9
2018-11-01T08:20:28.253Z,11.9
2018-11-01T08:21:27.556Z,11.88
2018-11-01T08:22:27.588Z,11.91
2018-11-01T08:23:27.583Z,11.83
2018-11-01T08:24:27.583Z,11.97
2018-11-01T08:25:27.344Z,11.99
2018-11-01T08:26:27.598Z,11.99
2018-11-01T08:27:27.605Z,12.12
2018-11-01T08:28:27.621Z,11.99
2018-11-01T08:29:27.605Z,12.02
2018-11-01T08:30:27.495Z,12.04
2018-11-01T08:31:27.611Z,11.99
2018-11-01T08:32:27.363Z,12.03
2018-11-01T08:33:27.621Z,12.06
2018-11-01T08:34:27.368Z,12.12
2018-11-01T08:35:27.622Z,12.13
2018-11-01T08:36:27.626Z,12.15
2018-11-01T08:37:27.626Z,12.28
2018-11-01T08:38:27.142Z,12.28
2018-11-01T08:39:28.012Z,12.29
2018-11-01T08:40:27.647Z,12.25
2018-11-01T08:41:27.641Z,12.37
2018-11-01T08:42:27.141Z,12.35
2018-11-01T08:43:27.408Z,12.37
2018-11-01T08:44:27.419Z,12.39
2018-11-01T08:45:27.711Z,12.31
2018-11-01T08:46:27.659Z,12.4
2018-11-01T08:47:27.660Z,12.46
2018-11-01T08:48:27.668Z,12.39
2018-11-01T08:49:28.186Z,12.43
2018-11-01T08:50:27.435Z,12.42
2018-11-01T08:51:27.675Z,12.42
2018-11-01T08:52:27.428Z,12.4
2018-11-01T08:53:27.681Z,12.42
2018-11-01T08:54:27.687Z,12.47
2018-11-01T08:55:27.690Z,12.43
2018-11-01T08:56:27.439Z,12.46
2018-11-01T08:57:27.444Z,12.47
2018-11-01T08:58:27.712Z,12.43
2018-11-01T08:59:27.473Z,12.46
2018-11-01T09:00:27.501Z,12.53
2018-11-01T09:01:27.817Z,12.47
2018-11-01T09:02:27.714Z,12.58
2018-11-01T09:03:27.716Z,12.46
2018-11-01T09:04:27.464Z,12.55
2018-11-01T09:05:27.521Z,12.62
2018-11-01T09:06:27.472Z,12.46
2018-11-01T09:07:27.925Z,12.6
2018-11-01T09:08:27.481Z,12.47
2018-11-01T09:09:27.737Z,12.55
2018-11-01T09:10:28.066Z,12.6
2018-11-01T09:11:27.719Z,12.57
2018-11-01T09:12:27.479Z,12.58
2018-11-01T09:13:28.222Z,12.47
2018-11-01T09:14:28.034Z,12.5
2018-11-01T09:15:27.540Z,12.4
2018-11-01T09:16:27.738Z,12.39
2018-11-01T09:17:27.747Z,12.45
2018-11-01T09:18:27.496Z,12.36
2018-11-01T09:19:27.741Z,12.49
2018-11-01T09:20:27.529Z,12.49
2018-11-01T09:21:27.508Z,12.43
2018-11-01T09:22:27.520Z,12.37
2018-11-01T09:23:27.778Z,12.43
2018-11-01T09:24:27.534Z,12.46
2018-11-01T09:25:27.785Z,12.46
2018-11-01T09:26:27.789Z,12.5
2018-11-01T09:27:27.545Z,12.46
2018-11-01T09:28:27.795Z,12.46
2018-11-01T09:29:27.796Z,12.39
2018-11-01T09:30:27.851Z,12.47
2018-11-01T09:31:27.554Z,12.43
2018-11-01T09:32:27.806Z,12.42
2018-11-01T09:33:27.807Z,12.39
2018-11-01T09:34:27.823Z,12.4
2018-11-01T09:35:28.011Z,12.31
2018-11-01T09:36:27.816Z,12.22
2018-11-01T09:37:27.847Z,12.28
2018-11-01T09:38:27.571Z,12.28
2018-11-01T09:39:27.573Z,12.27
2018-11-01T09:40:27.849Z,12.29
2018-11-01T09:41:27.849Z,12.31
2018-11-01T09:42:27.844Z,12.27
2018-11-01T09:43:27.585Z,12.25
2018-11-01T09:44:27.836Z,12.28
2018-11-01T09:45:27.897Z,12.32
2018-11-01T09:46:28.633Z,12.29
2018-11-01T09:47:28.396Z,12.35
2018-11-01T09:48:27.599Z,12.39
2018-11-01T09:49:27.608Z,12.31
2018-11-01T09:50:27.628Z,12.29
2018-11-01T09:51:27.861Z,12.31
2018-11-01T09:52:27.868Z,12.36
2018-11-01T09:53:27.621Z,12.42
2018-11-01T09:54:27.623Z,12.31
2018-11-01T09:55:27.671Z,12.32
2018-11-01T09:56:28.248Z,12.37
2018-11-01T09:57:27.636Z,12.29
2018-11-01T09:58:27.882Z,12.28
2018-11-01T09:59:27.888Z,12.18
2018-11-01T10:00:27.941Z,12.27
2018-11-01T10:01:27.909Z,12.22
2018-11-01T10:02:27.900Z,12.21
2018-11-01T10:03:27.904Z,12.27
2018-11-01T10:04:27.658Z,12.24
2018-11-01T10:05:27.911Z,12.29
2018-11-01T10:06:27.918Z,12.28
2018-11-01T10:07:27.917Z,12.28
2018-11-01T10:08:27.668Z,12.22
2018-11-01T10:09:27.926Z,12.18
2018-11-01T10:10:27.478Z,12.2
2018-11-01T10:11:27.934Z,12.18
2018-11-01T10:12:27.928Z,12.28
2018-11-01T10:13:27.940Z,12.29
2018-11-01T10:14:27.685Z,12.28
2018-11-01T10:15:27.791Z,12.35
2018-11-01T10:16:28.208Z,12.31
2018-11-01T10:17:29.601Z,12.43
2018-11-01T10:18:29.659Z,12.46
2018-11-01T10:19:27.949Z,12.5
2018-11-01T10:20:28.079Z,12.55
2018-11-01T10:21:28.401Z,12.49
2018-11-01T10:22:28.328Z,12.6
2018-11-01T10:23:27.965Z,12.62
2018-11-01T10:24:27.982Z,12.64
2018-11-01T10:25:28.409Z,12.62
2018-11-01T10:26:27.985Z,12.67
2018-11-01T10:27:28.179Z,12.62
2018-11-01T10:28:27.981Z,12.76
2018-11-01T10:29:27.740Z,12.75
2018-11-01T10:30:27.790Z,12.72
2018-11-01T10:31:27.990Z,12.8
2018-11-01T10:32:27.994Z,12.87
2018-11-01T10:33:27.767Z,12.82
2018-11-01T10:34:27.744Z,12.79
2018-11-01T10:35:29.213Z,12.91
2018-11-01T10:36:27.751Z,12.95
2018-11-01T10:37:27.759Z,13
2018-11-01T10:38:27.527Z,13.04
2018-11-01T10:39:28.019Z,13.03
2018-11-01T10:40:28.035Z,13.16
2018-11-01T10:41:28.033Z,13.27
2018-11-01T10:42:27.790Z,13.37
2018-11-01T10:43:28.041Z,13.28
2018-11-01T10:44:28.065Z,13.42
2018-11-01T10:45:27.848Z,13.5
2018-11-01T10:46:28.051Z,13.41
2018-11-01T10:47:27.846Z,13.44
2018-11-01T10:48:27.802Z,13.42
2018-11-01T10:49:28.057Z,13.42
2018-11-01T10:50:28.064Z,13.53
2018-11-01T10:51:28.064Z,13.46
2018-11-01T10:52:27.818Z,13.53
2018-11-01T10:53:28.073Z,13.54
2018-11-01T10:54:27.694Z,13.5
2018-11-01T10:55:27.849Z,13.52
2018-11-01T10:56:28.090Z,13.57
2018-11-01T10:57:27.838Z,13.71
2018-11-01T10:58:28.091Z,13.74
2018-11-01T10:59:27.838Z,13.81
2018-11-01T11:00:28.995Z,13.85
2018-11-01T11:01:28.113Z,13.85
2018-11-01T11:02:28.095Z,13.85
2018-11-01T11:03:28.109Z,14.04
2018-11-01T11:04:28.113Z,14.05
2018-11-01T11:05:27.859Z,14.11
2018-11-01T11:06:27.984Z,14.17
2018-11-01T11:07:27.866Z,14.23
2018-11-01T11:08:28.125Z,14.4
2018-11-01T11:09:28.142Z,14.36
2018-11-01T11:10:28.131Z,14.36
2018-11-01T11:11:27.912Z,14.44
2018-11-01T11:12:28.165Z,14.47
2018-11-01T11:13:28.156Z,14.47
2018-11-01T11:14:27.717Z,14.51
2018-11-01T11:15:28.216Z,14.6
2018-11-01T11:16:28.177Z,14.6
2018-11-01T11:17:28.181Z,14.51
2018-11-01T11:18:28.184Z,14.59
2018-11-01T11:19:28.185Z,14.65
2018-11-01T11:20:29.235Z,14.58
2018-11-01T11:21:28.211Z,14.58
2018-11-01T11:22:28.200Z,14.59
2018-11-01T11:23:28.218Z,14.59
2018-11-01T11:24:28.049Z,14.51
2018-11-01T11:25:28.271Z,14.58
2018-11-01T11:26:27.967Z,14.54
2018-11-01T11:27:28.245Z,14.7
2018-11-01T11:28:28.231Z,14.81
2018-11-01T11:29:27.985Z,14.84
2018-11-01T11:30:27.896Z,14.89
2018-11-01T11:31:27.995Z,14.89
2018-11-01T11:32:27.999Z,14.91
2018-11-01T11:33:28.007Z,14.86
2018-11-01T11:34:28.266Z,14.94
2018-11-01T11:35:28.631Z,14.85
2018-11-01T11:36:28.272Z,14.89
2018-11-01T11:37:28.276Z,15.02
2018-11-01T11:38:28.286Z,15.06
2018-11-01T11:39:28.480Z,15
2018-11-01T11:40:28.043Z,14.91
2018-11-01T11:41:28.301Z,14.94
2018-11-01T11:42:28.301Z,14.88
2018-11-01T11:43:28.320Z,14.86
2018-11-01T11:44:28.060Z,14.94
2018-11-01T11:45:28.118Z,14.91
2018-11-01T11:46:28.338Z,14.96
2018-11-01T11:47:28.121Z,14.86
2018-11-01T11:48:28.815Z,14.94
2018-11-01T11:49:28.074Z,14.88
2018-11-01T11:50:28.081Z,14.96
2018-11-01T11:51:28.251Z,14.86
2018-11-01T11:52:28.343Z,15.02
2018-11-01T11:53:28.342Z,14.89
2018-11-01T11:54:27.857Z,14.97
2018-11-01T11:55:28.365Z,14.92
2018-11-01T11:56:28.373Z,14.88
2018-11-01T11:57:28.127Z,14.89
2018-11-01T11:58:28.385Z,15.03
2018-11-01T11:59:28.395Z,15.02
2018-11-01T12:00:28.193Z,15.09
2018-11-01T12:01:28.426Z,15.06
2018-11-01T12:02:28.754Z,15.15
2018-11-01T12:03:28.166Z,15.24
2018-11-01T12:04:28.427Z,15.35
2018-11-01T12:05:28.859Z,15.29
2018-11-01T12:06:28.533Z,15.39
2018-11-01T12:07:28.438Z,15.44
2018-11-01T12:08:28.185Z,15.47
2018-11-01T12:09:28.192Z,15.62
2018-11-01T12:10:28.297Z,15.55
2018-11-01T12:11:28.465Z,15.59
2018-11-01T12:12:28.215Z,15.7
2018-11-01T12:13:28.216Z,15.61
2018-11-01T12:14:28.473Z,15.58
2018-11-01T12:15:28.559Z,15.65
2018-11-01T12:16:28.481Z,15.67
2018-11-01T12:17:28.236Z,15.76
2018-11-01T12:18:28.489Z,15.68
2018-11-01T12:19:28.518Z,15.7
2018-11-01T12:20:28.559Z,15.73
2018-11-01T12:21:28.510Z,15.8
2018-11-01T12:22:28.843Z,15.76
2018-11-01T12:23:28.274Z,15.59
2018-11-01T12:24:28.526Z,15.59
2018-11-01T12:25:28.278Z,15.64
2018-11-01T12:26:28.535Z,15.67
2018-11-01T12:27:28.538Z,15.72
2018-11-01T12:28:29.005Z,15.67
2018-11-01T12:29:28.556Z,15.77
2018-11-01T12:30:28.304Z,15.73
2018-11-01T12:31:28.570Z,15.75
2018-11-01T12:32:28.576Z,15.8
2018-11-01T12:33:28.579Z,15.76
2018-11-01T12:34:28.090Z,15.86
2018-11-01T12:35:28.418Z,15.73
2018-11-01T12:36:28.594Z,15.76
2018-11-01T12:37:28.667Z,15.72
2018-11-01T12:38:28.102Z,15.75
2018-11-01T12:39:28.359Z,15.82
2018-11-01T12:40:28.676Z,15.82
2018-11-01T12:41:28.442Z,15.79
2018-11-01T12:42:28.120Z,15.82
2018-11-01T12:43:28.637Z,15.86
2018-11-01T12:44:28.644Z,15.84
2018-11-01T12:45:28.651Z,15.58
2018-11-01T12:46:28.654Z,15.58
2018-11-01T12:47:28.654Z,15.46
2018-11-01T12:48:28.663Z,15.28
2018-11-01T12:49:28.709Z,15.24
2018-11-01T12:50:28.990Z,15.18
2018-11-01T12:51:28.677Z,15.11
2018-11-01T12:52:28.687Z,15.02
2018-11-01T12:53:28.692Z,14.94
2018-11-01T12:54:28.440Z,14.92
2018-11-01T12:55:28.699Z,14.89
2018-11-01T12:56:29.100Z,14.92
2018-11-01T12:57:28.466Z,14.96
2018-11-01T12:58:28.744Z,14.89
2018-11-01T12:59:28.474Z,14.85
2018-11-01T13:00:28.482Z,14.99